GW1995 Weather Reports


Display with metric or nautical units.
time (UTC)temp
F
wind
direction
speed
MPH
gust
MPH
rain 1hr
in
rain 24hr
in
rain mn
in
humidity
%
barometer
mb
20240301235830 53 204 4.0 5.0 0.00 0.00 0.00 50 1008.0
20240301235328 53 185 4.0 5.0 0.00 0.00 0.00 50 1007.8
20240301234828 53 157 4.0 6.0 0.00 0.00 0.00 49 1007.7
20240301234327 54 184 4.0 7.0 0.00 0.00 0.00 49 1008.2
20240301233827 54 186 3.0 6.0 0.00 0.00 0.00 48 1008.1
20240301233325 54 161 3.0 8.0 0.00 0.00 0.00 47 1007.7
20240301232824 55 194 3.0 6.0 0.00 0.00 0.00 47 1007.6
20240301232323 55 195 2.0 5.0 0.00 0.00 0.00 47 1007.7
20240301231821 55 184 5.0 8.0 0.00 0.00 0.00 46 1007.5
20240301231321 55 189 3.0 5.0 0.00 0.00 0.00 46 1007.5
20240301230819 55 176 5.0 10.0 0.00 0.00 0.00 45 1007.4
20240301230319 56 147 3.0 5.0 0.00 0.00 0.00 45 1007.4
20240301225818 56 168 5.0 8.0 0.00 0.00 0.00 45 1007.4
20240301225316 56 178 6.0 8.0 0.00 0.00 0.00 45 1007.2
20240301224814 56 189 5.0 7.0 0.00 0.00 0.00 45 1007.4
20240301224313 57 180 5.0 7.0 0.00 0.00 0.00 44 1007.3
20240301223812 57 161 4.0 10.0 0.00 0.00 0.00 44 1007.2
20240301223311 57 223 5.0 11.0 0.00 0.00 0.00 44 1007.4
20240301222809 57 185 8.0 11.0 0.00 0.00 0.00 44 1007.3
20240301222307 57 196 5.0 6.0 0.00 0.00 0.00 44 1007.2
20240301221807 58 165 7.0 9.0 0.00 0.00 0.00 43 1007.2
20240301221305 58 168 5.0 10.0 0.00 0.00 0.00 43 1007.0
20240301220803 58 145 6.0 9.0 0.00 0.00 0.00 43 1007.2
20240301220303 58 147 4.0 11.0 0.00 0.00 0.00 43 1007.2
20240301215800 58 184 4.0 8.0 0.00 0.00 0.00 43 1007.3
20240301215259 58 146 7.0 9.0 0.00 0.00 0.00 43 1007.3
20240301214757 58 167 7.0 10.0 0.00 0.00 0.00 42 1007.3
20240301214256 58 178 7.0 10.0 0.00 0.00 0.00 43 1007.2
20240301213754 58 168 8.0 9.0 0.00 0.00 0.00 43 1007.4
20240301213252 58 212 8.0 13.0 0.00 0.00 0.00 43 1007.3
20240301212752 58 164 7.0 11.0 0.00 0.00 0.00 43 1007.4
20240301212252 58 184 7.0 11.0 0.00 0.00 0.00 43 1007.5
20240301211750 58 150 5.0 8.0 0.00 0.00 0.00 43 1007.6
20240301211250 58 195 5.0 11.0 0.00 0.00 0.00 43 1007.7
20240301210749 57 181 10.0 13.0 0.00 0.00 0.00 43 1008.1
20240301210247 58 201 4.0 10.0 0.00 0.00 0.00 43 1007.6
20240301205746 58 192 6.0 11.0 0.00 0.00 0.00 43 1007.5
20240301205244 58 169 6.0 10.0 0.00 0.00 0.00 43 1007.6
20240301204743 58 163 7.0 13.0 0.00 0.00 0.00 43 1007.6
20240301204242 58 160 5.0 16.0 0.00 0.00 0.00 43 1007.8
20240301203740 57 141 5.0 8.0 0.00 0.00 0.00 43 1007.5
20240301203238 57 180 9.0 13.0 0.00 0.00 0.00 43 1007.4
20240301202736 57 157 6.0 8.0 0.00 0.00 0.00 43 1007.3
20240301202236 58 189 4.0 8.0 0.00 0.00 0.00 43 1007.5
20240301201735 58 157 9.0 10.0 0.00 0.00 0.00 43 1007.3
20240301201234 57 149 6.0 9.0 0.00 0.00 0.00 43 1007.3
20240301200733 57 167 8.0 11.0 0.00 0.00 0.00 44 1007.3
20240301200233 57 182 11.0 15.0 0.00 0.00 0.00 44 1007.3
20240301195733 57 162 7.0 8.0 0.00 0.00 0.00 43 1008.0
20240301195232 57 240 8.0 13.0 0.00 0.00 0.00 44 1007.6
20240301194730 57 176 5.0 8.0 0.00 0.00 0.00 44 1007.8
20240301194230 57 232 7.0 14.0 0.00 0.00 0.00 44 1008.0
20240301193729 57 156 5.0 11.0 0.00 0.00 0.00 45 1008.0
20240301193227 56 181 9.0 14.0 0.00 0.00 0.00 45 1008.0
20240301192727 56 192 5.0 9.0 0.00 0.00 0.00 45 1007.8
20240301192225 55 151 8.0 9.0 0.00 0.00 0.00 45 1007.8
20240301191724 55 172 5.0 10.0 0.00 0.00 0.00 45 1007.6
20240301191222 55 206 6.0 10.0 0.00 0.00 0.00 46 1007.7
20240301190721 55 205 6.0 9.0 0.00 0.00 0.00 46 1008.0
20240301190221 55 191 7.0 13.0 0.00 0.00 0.00 45 1007.8
20240301185718 54 164 6.0 11.0 0.00 0.00 0.00 45 1008.2
20240301185217 54 190 5.0 9.0 0.00 0.00 0.00 46 1008.2
20240301184714 53 180 3.0 5.0 0.00 0.00 0.00 46 1008.1
20240301184213 53 181 10.0 13.0 0.00 0.00 0.00 46 1008.4
20240301183712 53 200 6.0 14.0 0.00 0.00 0.00 47 1008.3
20240301183210 52 130 5.0 8.0 0.00 0.00 0.00 46 1008.4
20240301182709 52 178 6.0 9.0 0.00 0.00 0.00 46 1008.2
20240301182207 51 136 3.0 8.0 0.00 0.00 0.00 47 1008.3
20240301181702 51 206 6.0 13.0 0.00 0.00 0.00 47 1008.2
20240301181202 51 154 8.0 16.0 0.00 0.00 0.00 47 1008.3
20240301180702 51 199 3.0 8.0 0.00 0.00 0.00 47 1008.5
20240301180201 51 178 6.0 9.0 0.00 0.00 0.00 47 1008.6
20240301175701 51 169 9.0 11.0 0.00 0.00 0.00 47 1008.9
20240301175200 50 145 7.0 10.0 0.00 0.00 0.00 47 1009.1
20240301174659 50 189 6.0 11.0 0.00 0.00 0.00 48 1009.1
20240301174158 50 216 9.0 14.0 0.00 0.00 0.00 48 1009.1
20240301173657 50 167 5.0 9.0 0.00 0.00 0.00 48 1009.3
20240301173156 49 142 3.0 8.0 0.00 0.00 0.00 48 1009.1
20240301172655 50 173 5.0 10.0 0.00 0.00 0.00 48 1008.9
20240301172154 49 162 5.0 10.0 0.00 0.00 0.00 49 1008.9
20240301171654 49 144 9.0 10.0 0.00 0.00 0.00 48 1008.8
20240301171154 48 192 6.0 7.0 0.00 0.00 0.00 50 1008.8
20240301170653 48 158 5.0 7.0 0.00 0.00 0.00 49 1009.0
20240301170152 47 175 6.0 15.0 0.00 0.00 0.00 50 1009.0
20240301165652 47 198 3.0 15.0 0.00 0.00 0.00 51 1008.9
20240301165150 47 187 9.0 10.0 0.00 0.00 0.00 50 1009.0
20240301164649 47 163 4.0 9.0 0.00 0.00 0.00 50 1009.0
20240301164149 46 198 2.0 5.0 0.00 0.00 0.00 50 1009.1
20240301163648 46 162 7.0 8.0 0.00 0.00 0.00 50 1008.6
20240301163146 46 201 4.0 13.0 0.00 0.00 0.00 51 1009.0
20240301162645 46 139 5.0 8.0 0.00 0.00 0.00 50 1009.1
20240301162144 46 231 6.0 9.0 0.00 0.00 0.00 50 1009.2
20240301161643 46 147 4.0 5.0 0.00 0.00 0.00 49 1009.2
20240301161142 46 161 3.0 6.0 0.00 0.00 0.00 50 1009.3
20240301160641 45 167 5.0 8.0 0.00 0.00 0.00 51 1009.4
20240301160140 45 168 7.0 8.0 0.00 0.00 0.00 51 1009.4
20240301155639 44 184 10.0 13.0 0.00 0.00 0.00 51 1009.5
20240301155138 44 174 6.0 8.0 0.00 0.00 0.00 52 1009.4
20240301154636 44 166 7.0 9.0 0.00 0.00 0.00 52 1009.4
20240301154135 43 181 3.0 7.0 0.00 0.00 0.00 53 1009.7
20240301153634 42 183 2.0 9.0 0.00 0.00 0.00 54 1009.9
20240301153132 42 180 6.0 8.0 0.00 0.00 0.00 53 1009.7
20240301152632 41 176 5.0 10.0 0.00 0.00 0.00 55 1009.6
20240301152131 41 165 6.0 10.0 0.00 0.00 0.00 54 1009.5
20240301151631 41 186 3.0 9.0 0.00 0.00 0.00 54 1009.7
20240301151130 41 219 4.0 11.0 0.00 0.00 0.00 54 1009.9
20240301150630 41 164 3.0 9.0 0.00 0.00 0.00 54 1009.6
20240301150128 40 179 6.0 8.0 0.00 0.00 0.00 54 1009.6
20240301145627 40 149 5.0 11.0 0.00 0.00 0.00 54 1009.4
20240301145126 40 158 5.0 7.0 0.00 0.00 0.00 54 1009.7
20240301144625 40 176 4.0 6.0 0.00 0.00 0.00 53 1009.9
20240301144125 39 207 3.0 5.0 0.00 0.00 0.00 53 1009.8
20240301143625 39 193 7.0 9.0 0.00 0.00 0.00 53 1009.8
20240301143125 39 185 6.0 10.0 0.00 0.00 0.00 53 1010.1
20240301142623 39 114 5.0 9.0 0.00 0.00 0.00 52 1010.0
20240301142121 38 189 2.0 6.0 0.00 0.00 0.00 53 1010.1
20240301141621 38 194 5.0 6.0 0.00 0.00 0.00 53 1010.1
20240301141120 38 177 7.0 8.0 0.00 0.00 0.00 52 1010.2
20240301140620 37 145 5.0 7.0 0.00 0.00 0.00 53 1010.1
20240301140120 37 182 5.0 7.0 0.00 0.00 0.00 53 1010.2
20240301135620 37 224 2.0 6.0 0.00 0.00 0.00 53 1010.3
20240301135119 37 173 4.0 8.0 0.00 0.00 0.00 52 1010.2
20240301134617 37 161 6.0 7.0 0.00 0.00 0.00 52 1010.1
20240301134116 37 167 5.0 6.0 0.00 0.00 0.00 51 1010.2
20240301133615 36 186 3.0 8.0 0.00 0.00 0.00 51 1009.9
20240301133114 36 169 3.0 6.0 0.00 0.00 0.00 51 1010.0
20240301132613 36 160 2.0 7.0 0.00 0.00 0.00 51 1009.9
20240301132111 36 201 3.0 6.0 0.00 0.00 0.00 51 1010.0
20240301131610 35 178 5.0 6.0 0.00 0.00 0.00 51 1009.9
20240301131109 35 134 3.0 5.0 0.00 0.00 0.00 51 1010.0
20240301130607 36 176 2.0 7.0 0.00 0.00 0.00 51 1010.0
20240301130107 35 200 3.0 6.0 0.00 0.00 0.00 52 1009.8
20240301125607 36 165 4.0 6.0 0.00 0.00 0.00 51 1010.0
20240301125105 36 188 3.0 5.0 0.00 0.00 0.00 51 1010.0
20240301124603 36 165 3.0 3.0 0.00 0.00 0.00 51 1010.2
20240301124102 36 171 3.0 3.0 0.00 0.00 0.00 51 1010.1
20240301123559 36 165 3.0 5.0 0.00 0.00 0.00 50 1010.3
20240301123057 36 166 2.0 3.0 0.00 0.00 0.00 50 1010.4
20240301122556 36 192 3.0 3.0 0.00 0.00 0.00 49 1010.2
20240301122054 37 178 1.0 3.0 0.00 0.00 0.00 49 1010.4
20240301121553 37 139 3.0 3.0 0.00 0.00 0.00 49 1010.3
20240301121053 37 179 3.0 7.0 0.00 0.00 0.00 47 1010.3
20240301120553 37 183 1.0 3.0 0.00 0.00 0.00 47 1010.5
20240301120053 37 173 3.0 3.0 0.00 0.00 0.00 47 1010.5
20240301115552 37 156 2.0 8.0 0.00 0.00 0.00 46 1010.4
20240301115050 37 175 2.0 5.0 0.00 0.00 0.00 47 1010.4
20240301114550 37 162 2.0 3.0 0.00 0.00 0.00 46 1010.3
20240301114049 37 225 1.0 2.0 0.00 0.00 0.00 45 1010.4
20240301113549 38 213 1.0 3.0 0.00 0.00 0.00 45 1010.5
20240301113048 38 172 5.0 6.0 0.00 0.00 0.00 44 1010.4
20240301112546 38 170 2.0 2.0 0.00 0.00 0.00 44 1010.3
20240301112046 38 166 2.0 2.0 0.00 0.00 0.00 43 1010.4
20240301111546 38 178 3.0 6.0 0.00 0.00 0.00 42 1010.3
20240301111045 38 169 3.0 5.0 0.00 0.00 0.00 42 1010.4
20240301110543 38 182 5.0 7.0 0.00 0.00 0.00 41 1010.4
20240301110041 39 202 1.0 6.0 0.00 0.00 0.00 41 1010.5
20240301105541 39 180 4.0 5.0 0.00 0.00 0.00 42 1010.4
20240301105039 39 216 4.0 6.0 0.00 0.00 0.00 41 1010.4
20240301104538 38 176 3.0 6.0 0.00 0.00 0.00 41 1010.2
20240301104036 39 189 3.0 6.0 0.00 0.00 0.00 41 1010.4
20240301103535 39 178 5.0 7.0 0.00 0.00 0.00 41 1010.4
20240301103033 39 203 4.0 6.0 0.00 0.00 0.00 41 1010.6
20240301102531 39 188 4.0 6.0 0.00 0.00 0.00 41 1010.5
20240301102029 39 202 5.0 6.0 0.00 0.00 0.00 40 1010.6
20240301101528 39 186 3.0 5.0 0.00 0.00 0.00 40 1010.5
20240301101027 39 191 5.0 7.0 0.00 0.00 0.00 40 1010.5
20240301100526 39 165 2.0 9.0 0.00 0.00 0.00 40 1010.5
20240301100025 39 161 5.0 7.0 0.00 0.00 0.00 39 1010.6
20240301095524 39 224 4.0 6.0 0.00 0.00 0.00 39 1010.8
20240301095023 40 185 3.0 5.0 0.00 0.00 0.00 39 1010.4
20240301094523 40 198 4.0 10.0 0.00 0.00 0.00 38 1010.5
20240301094021 40 109 5.0 11.0 0.00 0.00 0.00 38 1010.6
20240301093520 40 190 4.0 6.0 0.00 0.00 0.00 38 1010.6
20240301093020 40 182 3.0 5.0 0.00 0.00 0.00 38 1010.5
20240301092518 40 149 5.0 7.0 0.00 0.00 0.00 37 1010.6
20240301092017 41 176 4.0 6.0 0.00 0.00 0.00 36 1010.4
20240301091515 41 188 3.0 7.0 0.00 0.00 0.00 37 1010.4
20240301091013 41 193 5.0 7.0 0.00 0.00 0.00 36 1010.6
20240301090511 41 221 3.0 8.0 0.00 0.00 0.00 36 1010.5
20240301090010 41 176 3.0 9.0 0.00 0.00 0.00 36 1010.5
20240301085508 41 159 5.0 8.0 0.00 0.00 0.00 36 1010.6
20240301085006 41 161 4.0 10.0 0.00 0.00 0.00 37 1010.7
20240301084505 41 194 7.0 11.0 0.00 0.00 0.00 36 1010.7
20240301084003 41 197 7.0 9.0 0.00 0.00 0.00 37 1010.6
20240301083502 41 204 5.0 7.0 0.00 0.00 0.00 37 1010.7
20240301083001 41 188 3.0 8.0 0.00 0.00 0.00 37 1010.8
20240301082459 41 185 4.0 7.0 0.00 0.00 0.00 37 1011.0
20240301081959 41 143 4.0 7.0 0.00 0.00 0.00 37 1010.9
20240301081457 41 170 4.0 5.0 0.00 0.00 0.00 37 1010.9
20240301080956 41 195 5.0 8.0 0.00 0.00 0.00 36 1011.0
20240301080455 41 187 5.0 10.0 0.00 0.00 0.00 37 1011.2
20240301075953 41 203 3.0 9.0 0.00 0.00 0.00 37 1011.1
20240301075452 41 166 4.0 7.0 0.00 0.00 0.00 37 1011.1
20240301074951 41 184 2.0 8.0 0.00 0.00 0.00 37 1011.2
20240301074450 41 165 4.0 9.0 0.00 0.00 0.00 36 1011.2
20240301073949 41 229 5.0 8.0 0.00 0.00 0.00 36 1011.1
20240301073448 41 197 5.0 7.0 0.00 0.00 0.00 37 1011.3
20240301072946 41 203 6.0 8.0 0.00 0.00 0.00 37 1011.3
20240301072444 41 198 5.0 8.0 0.00 0.00 0.00 36 1011.4
20240301071944 41 192 3.0 7.0 0.00 0.00 0.00 36 1011.4
20240301071443 41 175 6.0 9.0 0.00 0.00 0.00 37 1011.2
20240301070943 41 193 3.0 9.0 0.00 0.00 0.00 36 1011.4
20240301070441 41 161 4.0 6.0 0.00 0.00 0.00 37 1011.4
20240301065939 41 167 4.0 7.0 0.00 0.00 0.00 37 1011.3
20240301065437 41 186 3.0 8.0 0.00 0.00 0.00 37 1011.7
20240301064936 41 197 4.0 6.0 0.00 0.00 0.00 37 1011.7
20240301064435 41 203 4.0 6.0 0.00 0.00 0.00 37 1011.8
20240301063935 41 158 4.0 6.0 0.00 0.00 0.00 38 1011.5
20240301063434 41 211 4.0 6.0 0.00 0.00 0.00 37 1011.7
20240301062933 42 222 3.0 8.0 0.00 0.00 0.00 37 1011.8
20240301062431 42 195 5.0 11.0 0.00 0.00 0.00 37 1011.6
20240301061929 42 204 3.0 10.0 0.00 0.00 0.00 37 1011.6
20240301061427 42 183 3.0 7.0 0.00 0.00 0.00 37 1011.7
20240301060927 42 174 4.0 7.0 0.00 0.00 0.00 37 1011.9
20240301060425 42 172 3.0 8.0 0.00 0.00 0.00 37 1011.7
20240301055924 42 172 4.0 10.0 0.00 0.00 0.00 36 1011.7
20240301055423 42 174 5.0 10.0 0.00 0.00 0.00 36 1011.8
20240301054921 42 187 3.0 7.0 0.00 0.00 0.00 37 1011.8
20240301054420 43 168 6.0 10.0 0.00 0.00 0.00 36 1011.9
20240301053918 42 181 4.0 7.0 0.00 0.00 0.00 36 1012.1
20240301053416 42 223 4.0 7.0 0.00 0.00 0.00 36 1011.9
20240301052914 43 185 5.0 8.0 0.00 0.00 0.00 36 1011.8
20240301052413 43 180 3.0 6.0 0.00 0.00 0.00 36 1011.8
20240301051913 43 141 3.0 6.0 0.00 0.00 0.00 36 1012.0
20240301051412 43 177 3.0 5.0 0.00 0.00 0.00 37 1011.9
20240301050911 43 216 4.0 6.0 0.00 0.00 0.00 36 1011.9
20240301050410 43 173 6.0 7.0 0.00 0.00 0.00 36 1012.1
20240301045910 43 139 3.0 10.0 0.00 0.00 0.00 36 1012.1
20240301045408 43 152 3.0 6.0 0.00 0.00 0.00 36 1011.9
20240301044907 43 171 4.0 10.0 0.00 0.00 0.00 36 1012.2
20240301044405 43 161 3.0 8.0 0.00 0.00 0.00 38 1012.1
20240301043904 43 167 3.0 6.0 0.00 0.00 0.00 37 1012.0
20240301043404 43 181 4.0 9.0 0.00 0.00 0.00 37 1012.3
20240301042903 43 154 6.0 7.0 0.00 0.00 0.00 38 1012.4
20240301042403 43 192 5.0 6.0 0.00 0.00 0.00 38 1012.2
20240301041901 43 173 4.0 7.0 0.00 0.00 0.00 38 1012.3
20240301041359 43 175 7.0 11.0 0.00 0.00 0.00 39 1012.3
20240301040858 43 212 3.0 5.0 0.00 0.00 0.00 39 1012.5
20240301040357 43 177 3.0 8.0 0.00 0.00 0.00 39 1012.4
20240301035857 43 163 4.0 6.0 0.00 0.00 0.00 39 1012.5
20240301035356 43 183 3.0 6.0 0.00 0.00 0.00 39 1012.5
20240301034855 43 198 3.0 7.0 0.00 0.00 0.00 38 1012.6
20240301034355 43 148 4.0 6.0 0.00 0.00 0.00 38 1012.4
20240301033854 43 157 5.0 7.0 0.00 0.00 0.00 38 1012.5
20240301033353 43 127 2.0 3.0 0.00 0.00 0.00 38 1012.6
20240301032853 43 178 3.0 5.0 0.00 0.00 0.00 38 1012.8
20240301032353 44 199 4.0 7.0 0.00 0.00 0.00 37 1012.6
20240301031853 43 148 5.0 6.0 0.00 0.00 0.00 38 1012.6
20240301031352 44 187 5.0 5.0 0.00 0.00 0.00 37 1012.6
20240301030850 44 167 5.0 7.0 0.00 0.00 0.00 37 1012.6
20240301030348 44 190 4.0 6.0 0.00 0.00 0.00 37 1012.5
20240301025847 44 178 1.0 3.0 0.00 0.00 0.00 38 1012.5
20240301025345 44 183 3.0 5.0 0.00 0.00 0.00 37 1012.5
20240301024845 44 175 2.0 6.0 0.00 0.00 0.00 37 1012.5
20240301024345 44 181 2.0 7.0 0.00 0.00 0.00 37 1012.5
20240301023844 44 148 4.0 8.0 0.00 0.00 0.00 36 1012.3
20240301023342 44 175 3.0 3.0 0.00 0.00 0.00 36 1012.6
20240301022841 44 197 2.0 3.0 0.00 0.00 0.00 37 1012.4
20240301022338 44 192 2.0 3.0 0.00 0.00 0.00 37 1012.5
20240301021839 44 173 3.0 5.0 0.00 0.00 0.00 36 1012.4
20240301021338 44 197 3.0 5.0 0.00 0.00 0.00 36 1012.6
20240301020837 44 175 2.0 5.0 0.00 0.00 0.00 36 1012.9
20240301020336 45 181 3.0 3.0 0.00 0.00 0.00 36 1012.6
20240301015836 45 169 4.0 5.0 0.00 0.00 0.00 35 1012.5
20240301015335 45 162 2.0 3.0 0.00 0.00 0.00 36 1012.6
20240301014834 45 169 2.0 5.0 0.00 0.00 0.00 35 1012.8
20240301014333 46 144 3.0 6.0 0.00 0.00 0.00 35 1012.5
20240301013832 46 185 3.0 5.0 0.00 0.00 0.00 35 1012.6
20240301013331 46 183 3.0 5.0 0.00 0.00 0.00 34 1012.6
20240301012829 46 171 3.0 5.0 0.00 0.00 0.00 33 1012.6
20240301012328 47 202 1.0 2.0 0.00 0.00 0.00 34 1012.9
20240301011826 47 160 4.0 5.0 0.00 0.00 0.00 33 1013.0
20240301011325 47 203 3.0 3.0 0.00 0.00 0.00 33 1012.8
20240301010825 47 160 2.0 7.0 0.00 0.00 0.00 33 1012.8
20240301010324 48 151 3.0 5.0 0.00 0.00 0.00 31 1012.9
20240301005824 48 166 2.0 5.0 0.00 0.00 0.00 31 1012.6
20240301005322 48 189 1.0 3.0 0.00 0.00 0.00 31 1012.6
20240301004820 48 175 4.0 6.0 0.00 0.00 0.00 31 1012.8
20240301004320 48 154 4.0 5.0 0.00 0.00 0.00 31 1012.8
20240301003819 49 164 2.0 3.0 0.00 0.00 0.00 30 1012.3
20240301003319 49 181 2.0 3.0 0.00 0.00 0.00 30 1012.5
20240301002819 50 189 2.0 3.0 0.00 0.00 0.00 29 1012.3
20240301002318 50 176 2.0 3.0 0.00 0.00 0.00 28 1012.5
20240301001817 51 189 1.0 2.0 0.00 0.00 0.00 27 1012.4
20240301001316 51 190 2.0 3.0 0.00 0.00 0.00 27 1012.4
20240301000815 51 185 3.0 3.0 0.00 0.00 0.00 27 1012.3
20240301000314 52 202 4.0 5.0 0.00 0.00 0.00 27 1012.4